Impacts TAF Board INFO
FOR SITUATIONAL AWARENESS. NOT TO BE USED FOR FLIGHT PLANNING PURPOSES.
IDs:

KCLT - Charlotte/Douglas In, NC, US

Issued at 0524 UTC 18 Jan 2018
Updated at 0954 UTC 18 Jan 2018
Potential Impact None Slight Moderate High
Time<<19/10Z 19/11Z 19/12Z 19/13Z 19/14Z 19/15Z 19/16Z 19/17Z 19/18Z 19/19Z 19/20Z 19/21Z 19/22Z
Type PRVL PRVL
VIS >6 >6
CIG -- --
Cover SKC SKC
FltCat VFR VFR
WX -- --
WDir 240 240
WSpd 6 6
WGst -- --

Raw TAF
KCLT 180524Z 1806/1912 32006KT P6SM FEW250
  FM181700 24006KT P6SM SKC


METAR Board
Radar Display
Forecast Discussion

FOR SITUATIONAL AWARENESS. NOT TO BE USED FOR FLIGHT PLANNING PURPOSES.